createdAt,value
2018-04-18T00:00:46.008Z,13.70
2018-04-18T00:03:13.602Z,13.70
2018-04-18T00:05:41.227Z,13.70
2018-04-18T00:08:08.867Z,13.70
2018-04-18T00:10:36.459Z,13.70
2018-04-18T00:13:05.257Z,13.60
2018-04-18T00:15:33.598Z,13.50
2018-04-18T00:18:01.349Z,13.50
2018-04-18T00:20:29.017Z,13.50
2018-04-18T00:22:57.522Z,13.30
2018-04-18T00:25:25.934Z,13.30
2018-04-18T00:27:54.358Z,13.30
2018-04-18T00:30:22.085Z,13.30
2018-04-18T00:32:49.773Z,13.30
2018-04-18T00:35:17.530Z,13.30
2018-04-18T00:37:46.105Z,13.30
2018-04-18T00:40:15.708Z,13.20
2018-04-18T00:42:43.291Z,13.20
2018-04-18T00:45:10.928Z,13.10
2018-04-18T00:47:39.589Z,13.00
2018-04-18T00:50:18.684Z,13.00
2018-04-18T00:52:46.286Z,13.00
2018-04-18T00:55:13.941Z,13.00
2018-04-18T00:57:41.874Z,12.90
2018-04-18T01:00:09.462Z,12.90
2018-04-18T01:02:37.092Z,12.80
2018-04-18T01:05:05.583Z,12.80
2018-04-18T01:07:33.402Z,12.60
2018-04-18T01:10:01.034Z,12.80
2018-04-18T01:12:28.723Z,12.80
2018-04-18T01:15:04.374Z,12.80
2018-04-18T01:17:33.965Z,12.70
2018-04-18T01:20:47.206Z,12.80
2018-04-18T01:23:21.666Z,13.00
2018-04-18T01:25:49.484Z,12.70
2018-04-18T01:28:17.615Z,12.90
2018-04-18T01:30:45.977Z,12.70
2018-04-18T01:33:14.419Z,12.80
2018-04-18T01:35:42.110Z,12.70
2018-04-18T01:38:09.729Z,12.70
2018-04-18T01:40:38.110Z,12.60
2018-04-18T01:43:05.862Z,12.60
2018-04-18T01:45:33.494Z,12.60
2018-04-18T01:48:01.867Z,12.50
2018-04-18T01:50:30.252Z,12.50
2018-04-18T01:52:57.870Z,12.50
2018-04-18T01:55:26.963Z,12.30
2018-04-18T01:57:55.021Z,12.30
2018-04-18T02:00:22.640Z,12.30
2018-04-18T02:02:51.028Z,12.40
2018-04-18T02:05:19.579Z,12.40
2018-04-18T02:07:48.035Z,12.20
2018-04-18T02:10:16.433Z,12.30
2018-04-18T02:12:44.103Z,12.30
2018-04-18T02:15:11.764Z,12.20
2018-04-18T02:17:39.439Z,12.30
2018-04-18T02:20:07.374Z,12.20
2018-04-18T02:22:35.816Z,12.20
2018-04-18T02:25:03.461Z,12.20
2018-04-18T02:27:31.144Z,12.10
2018-04-18T02:29:58.780Z,12.00
2018-04-18T02:32:27.391Z,12.00
2018-04-18T02:34:55.910Z,11.90
2018-04-18T02:37:23.486Z,12.00
2018-04-18T02:39:51.199Z,12.10
2018-04-18T02:42:19.917Z,12.00
2018-04-18T02:44:47.549Z,12.00
2018-04-18T02:47:15.237Z,11.80
2018-04-18T02:49:43.188Z,11.80
2018-04-18T02:52:10.770Z,11.90
2018-04-18T02:54:38.383Z,11.80
2018-04-18T02:57:06.301Z,11.70
2018-04-18T02:59:34.006Z,11.70
2018-04-18T03:02:02.393Z,11.70
2018-04-18T03:04:30.153Z,11.70
2018-04-18T03:06:57.816Z,11.60
2018-04-18T03:09:26.102Z,11.60
2018-04-18T03:11:55.058Z,11.60
2018-04-18T03:14:22.843Z,11.60
2018-04-18T03:16:50.432Z,11.60
2018-04-18T03:19:18.220Z,11.60
2018-04-18T03:21:45.900Z,11.50
2018-04-18T03:24:13.573Z,11.50
2018-04-18T03:26:42.212Z,11.50
2018-04-18T03:29:09.830Z,11.60
2018-04-18T03:31:37.461Z,11.60
2018-04-18T03:34:05.866Z,11.50
2018-04-18T03:36:33.500Z,11.50
2018-04-18T03:39:01.143Z,11.50
2018-04-18T03:41:28.783Z,11.50
2018-04-18T03:43:57.324Z,11.40
2018-04-18T03:46:26.134Z,11.40
2018-04-18T03:48:53.797Z,11.40
2018-04-18T03:51:21.396Z,11.40
2018-04-18T03:53:48.990Z,11.30
2018-04-18T03:56:18.645Z,11.30
2018-04-18T03:58:46.244Z,11.30
2018-04-18T04:01:13.930Z,11.40
2018-04-18T04:03:42.740Z,11.30
2018-04-18T04:06:10.373Z,11.30
2018-04-18T04:08:37.968Z,11.30
2018-04-18T04:11:06.872Z,11.30
2018-04-18T04:13:35.354Z,11.30
2018-04-18T04:16:03.064Z,11.20
2018-04-18T04:18:43.394Z,11.30
2018-04-18T04:21:22.943Z,11.30
2018-04-18T04:24:04.595Z,11.30
2018-04-18T04:26:33.126Z,11.30
2018-04-18T04:29:01.459Z,11.30
2018-04-18T04:31:29.093Z,11.40
2018-04-18T04:33:57.507Z,11.50
2018-04-18T04:36:25.137Z,11.50
2018-04-18T04:38:52.760Z,11.50
2018-04-18T04:41:22.414Z,11.60
2018-04-18T04:43:50.178Z,11.50
2018-04-18T04:46:17.843Z,11.60
2018-04-18T04:48:47.180Z,11.50
2018-04-18T04:51:15.922Z,11.50
2018-04-18T04:53:46.222Z,11.60
2018-04-18T04:56:14.628Z,11.60
2018-04-18T04:58:42.330Z,11.60
2018-04-18T05:01:10.290Z,11.60
2018-04-18T05:03:38.662Z,11.60
2018-04-18T05:06:07.217Z,11.70
2018-04-18T05:08:36.528Z,11.80
2018-04-18T05:11:08.114Z,12.00
2018-04-18T05:13:36.926Z,12.00
2018-04-18T05:16:06.299Z,12.10
2018-04-18T05:18:34.555Z,12.10
2018-04-18T05:21:02.536Z,12.30
2018-04-18T05:23:31.150Z,12.50
2018-04-18T05:25:59.800Z,12.60
2018-04-18T05:28:27.412Z,12.80
2018-04-18T05:30:55.266Z,12.90
2018-04-18T05:33:23.686Z,13.30
2018-04-18T05:35:52.137Z,13.50
2018-04-18T05:38:19.921Z,13.50
2018-04-18T05:40:47.834Z,13.70
2018-04-18T05:43:15.608Z,14.00
2018-04-18T05:45:43.291Z,14.20
2018-04-18T05:48:11.001Z,14.50
2018-04-18T05:50:39.560Z,14.90
2018-04-18T05:53:08.094Z,14.90
2018-04-18T05:55:37.264Z,15.70
2018-04-18T05:58:06.764Z,16.20
2018-04-18T06:00:35.647Z,16.70
2018-04-18T06:03:03.478Z,16.70
2018-04-18T06:05:32.899Z,17.70
2018-04-18T06:08:00.581Z,17.50
2018-04-18T06:10:28.225Z,18.00
2018-04-18T06:12:57.708Z,18.40
2018-04-18T06:15:25.464Z,18.50
2018-04-18T06:17:53.889Z,19.00
2018-04-18T06:20:22.619Z,19.40
2018-04-18T06:22:50.293Z,19.40
2018-04-18T06:25:17.955Z,19.90
2018-04-18T06:27:45.895Z,20.40
2018-04-18T06:30:13.519Z,20.80
2018-04-18T06:32:42.023Z,21.30
2018-04-18T06:35:09.822Z,21.20
2018-04-18T06:37:37.567Z,21.40
2018-04-18T06:40:07.174Z,22.10
2018-04-18T06:42:37.598Z,22.10
2018-04-18T06:45:05.668Z,22.50
2018-04-18T06:47:34.984Z,23.00
2018-04-18T06:50:03.467Z,24.20
2018-04-18T06:52:31.279Z,24.10
2018-04-18T06:54:59.032Z,24.80
2018-04-18T06:57:27.900Z,25.90
2018-04-18T06:59:55.539Z,25.90
2018-04-18T07:02:24.076Z,26.40
2018-04-18T07:04:51.864Z,26.30
2018-04-18T07:07:20.415Z,27.60
2018-04-18T07:09:58.782Z,27.50
2018-04-18T07:12:26.533Z,28.30
2018-04-18T07:14:54.314Z,29.00
2018-04-18T07:17:22.012Z,29.50
2018-04-18T07:19:49.752Z,29.70
2018-04-18T07:22:17.480Z,29.80
2018-04-18T07:24:45.169Z,29.70
2018-04-18T07:27:12.975Z,29.60
2018-04-18T07:29:40.756Z,29.60
2018-04-18T07:32:09.227Z,28.60
2018-04-18T07:34:38.234Z,28.60
2018-04-18T07:37:06.857Z,28.10
2018-04-18T07:39:35.668Z,28.60
2018-04-18T07:42:03.698Z,28.40
2018-04-18T07:44:32.332Z,28.10
2018-04-18T07:47:00.762Z,26.70
2018-04-18T07:49:28.490Z,26.70
2018-04-18T07:51:56.487Z,26.20
2018-04-18T07:54:24.299Z,26.00
2018-04-18T07:56:52.043Z,25.90
2018-04-18T07:59:20.131Z,25.40
2018-04-18T08:01:47.805Z,25.10
2018-04-18T08:04:15.517Z,24.90
2018-04-18T08:06:43.207Z,25.10
2018-04-18T08:09:11.097Z,25.00
2018-04-18T08:11:38.895Z,25.40
2018-04-18T08:14:09.668Z,25.60
2018-04-18T08:16:37.484Z,25.70
2018-04-18T08:19:05.922Z,25.80
2018-04-18T08:21:37.251Z,26.20
2018-04-18T08:24:10.761Z,25.90
2018-04-18T08:26:38.694Z,25.90
2018-04-18T08:29:06.892Z,25.80
2018-04-18T08:31:35.364Z,25.90
2018-04-18T08:34:08.958Z,25.70
2018-04-18T08:36:37.141Z,25.20
2018-04-18T08:39:06.759Z,25.20
2018-04-18T08:41:35.435Z,24.70
2018-04-18T08:44:06.187Z,25.30
2018-04-18T08:46:35.521Z,26.10
2018-04-18T08:49:03.682Z,26.10
2018-04-18T08:51:31.489Z,26.70
2018-04-18T08:53:59.667Z,26.30
2018-04-18T08:56:29.827Z,25.40
2018-04-18T08:58:57.564Z,25.20
2018-04-18T09:01:28.036Z,25.20
2018-04-18T09:03:59.693Z,23.80
2018-04-18T09:06:29.732Z,23.90
2018-04-18T09:09:01.848Z,23.30
2018-04-18T09:11:30.920Z,23.50
2018-04-18T09:13:58.700Z,24.20
2018-04-18T09:16:26.471Z,24.20
2018-04-18T09:18:55.163Z,24.10
2018-04-18T09:21:23.772Z,24.30
2018-04-18T09:23:51.619Z,24.30
2018-04-18T09:26:21.654Z,24.50
2018-04-18T09:28:51.206Z,25.80
2018-04-18T09:31:18.972Z,25.80
2018-04-18T09:33:47.881Z,25.30
2018-04-18T09:36:16.446Z,24.90
2018-04-18T09:38:44.526Z,24.90
2018-04-18T09:41:12.481Z,25.20
2018-04-18T09:43:41.025Z,25.90
2018-04-18T09:46:08.739Z,25.90
2018-04-18T09:48:37.470Z,27.90
2018-04-18T09:51:05.753Z,27.80
2018-04-18T09:53:34.512Z,28.30
2018-04-18T09:56:03.095Z,28.70
2018-04-18T09:58:31.643Z,27.90
2018-04-18T10:00:59.282Z,27.80
2018-04-18T10:03:26.909Z,26.90
2018-04-18T10:05:54.584Z,27.30
2018-04-18T10:08:23.060Z,27.50
2018-04-18T10:10:51.539Z,28.20
2018-04-18T10:13:20.178Z,28.20
2018-04-18T10:15:48.778Z,27.40
2018-04-18T10:18:19.312Z,27.50
2018-04-18T10:20:46.976Z,27.50
2018-04-18T10:23:14.682Z,27.80
2018-04-18T10:25:42.339Z,27.60
2018-04-18T10:28:10.000Z,26.90
2018-04-18T10:30:37.593Z,26.80
2018-04-18T10:33:06.964Z,27.40
2018-04-18T10:35:35.425Z,27.40
2018-04-18T10:38:04.777Z,27.40
2018-04-18T10:40:32.615Z,27.40
2018-04-18T10:43:00.254Z,27.70
2018-04-18T10:45:27.985Z,27.90
2018-04-18T10:47:55.594Z,28.30
2018-04-18T10:50:23.362Z,28.60
2018-04-18T10:52:51.072Z,29.40
2018-04-18T10:55:19.494Z,29.80
2018-04-18T10:57:47.236Z,29.80
2018-04-18T11:00:15.119Z,29.50
2018-04-18T11:02:42.775Z,29.10
2018-04-18T11:05:11.184Z,28.70
2018-04-18T11:07:38.806Z,28.70
2018-04-18T11:10:06.803Z,28.10
2018-04-18T11:12:36.012Z,27.80
2018-04-18T11:15:05.118Z,26.20
2018-04-18T11:17:33.648Z,25.10
2018-04-18T11:20:03.052Z,24.10
2018-04-18T11:22:31.505Z,23.80
2018-04-18T11:25:00.233Z,23.80
2018-04-18T11:27:27.887Z,23.30
2018-04-18T11:29:55.590Z,23.00
2018-04-18T11:32:23.242Z,22.20
2018-04-18T11:34:52.802Z,22.10
2018-04-18T12:46:46.749Z,20.60
2018-04-18T12:49:18.755Z,20.90
2018-04-18T12:51:46.443Z,20.80
2018-04-18T12:54:14.232Z,21.00
2018-04-18T12:56:42.772Z,21.20
2018-04-18T12:59:10.413Z,21.20
2018-04-18T13:01:38.302Z,21.20
2018-04-18T13:04:06.067Z,21.30
2018-04-18T13:06:33.674Z,21.30
2018-04-18T13:09:01.234Z,21.30
2018-04-18T13:11:29.963Z,21.40
2018-04-18T13:13:57.593Z,21.60
2018-04-18T13:16:25.687Z,21.70
2018-04-18T13:18:54.187Z,21.70
2018-04-18T13:21:21.788Z,21.70
2018-04-18T13:23:50.164Z,21.30
2018-04-18T13:26:18.530Z,21.40
2018-04-18T13:28:46.925Z,21.40
2018-04-18T13:31:14.845Z,21.30
2018-04-18T13:33:46.122Z,21.40
2018-04-18T13:36:14.528Z,21.40
2018-04-18T13:38:43.190Z,21.40
2018-04-18T13:41:12.948Z,21.30
2018-04-18T13:43:41.521Z,21.60
2018-04-18T13:46:09.147Z,21.60
2018-04-18T13:48:36.838Z,21.50
2018-04-18T13:51:05.893Z,21.70
2018-04-18T13:53:33.562Z,21.60
2018-04-18T13:56:01.274Z,21.60
2018-04-18T13:58:28.911Z,21.60
2018-04-18T14:00:57.617Z,21.60
2018-04-18T14:03:26.295Z,21.60
2018-04-18T14:05:53.909Z,21.60
2018-04-18T14:08:23.358Z,21.60
2018-04-18T14:10:50.966Z,21.60
2018-04-18T14:13:19.401Z,21.40
2018-04-18T14:15:46.993Z,21.40
2018-04-18T14:18:15.373Z,21.60
2018-04-18T14:20:43.763Z,21.70
2018-04-18T14:23:12.142Z,21.60
2018-04-18T14:25:40.815Z,21.60
2018-04-18T14:28:09.172Z,21.60
2018-04-18T14:30:36.729Z,21.60
2018-04-18T14:33:05.296Z,21.50
2018-04-18T14:35:32.888Z,21.50
2018-04-18T14:38:02.206Z,21.40
2018-04-18T14:40:30.970Z,21.50
2018-04-18T14:42:58.513Z,21.50
2018-04-18T14:45:26.091Z,21.50
2018-04-18T14:47:54.496Z,21.30
2018-04-18T14:50:22.048Z,21.30
2018-04-18T14:52:49.624Z,21.30
2018-04-18T14:55:17.355Z,21.20
2018-04-18T14:57:45.736Z,21.10
2018-04-18T15:00:14.113Z,21.20
2018-04-18T15:02:42.942Z,21.20
2018-04-18T15:05:10.612Z,21.20
2018-04-18T15:07:38.208Z,21.20
2018-04-18T15:10:06.878Z,21.10
2018-04-18T15:12:34.437Z,21.10
2018-04-18T15:15:02.040Z,21.20
2018-04-18T15:17:29.643Z,21.30
2018-04-18T15:19:57.330Z,21.40
2018-04-18T15:22:25.723Z,21.30
2018-04-18T15:24:54.052Z,21.40
2018-04-18T15:27:21.688Z,21.40
2018-04-18T15:29:49.332Z,21.40
2018-04-18T15:32:16.965Z,21.40
2018-04-18T15:34:45.285Z,21.30
2018-04-18T15:37:13.033Z,21.40
2018-04-18T15:39:40.695Z,21.40
2018-04-18T15:42:08.299Z,21.30
2018-04-18T15:44:35.991Z,21.30
2018-04-18T15:47:03.689Z,21.30
2018-04-18T15:49:31.304Z,21.30
2018-04-18T15:52:00.633Z,21.20
2018-04-18T15:54:28.234Z,21.20
2018-04-18T15:56:55.823Z,21.30
2018-04-18T15:59:24.293Z,21.20
2018-04-18T16:01:51.894Z,21.10
2018-04-18T16:04:19.490Z,21.20
2018-04-18T16:06:49.083Z,21.10
2018-04-18T16:09:17.675Z,21.20
2018-04-18T16:11:45.342Z,21.10
2018-04-18T16:14:12.917Z,21.20
2018-04-18T16:16:40.562Z,21.20
2018-04-18T16:19:08.315Z,21.00
2018-04-18T16:21:35.874Z,21.10
2018-04-18T16:24:04.297Z,21.00
2018-04-18T16:26:32.612Z,20.90
2018-04-18T16:29:00.252Z,20.90
2018-04-18T16:31:27.825Z,20.90
2018-04-18T16:33:55.459Z,20.90
2018-04-18T16:36:23.109Z,20.80
2018-04-18T16:38:51.486Z,20.80
2018-04-18T16:41:19.201Z,20.80
2018-04-18T16:43:47.588Z,20.70
2018-04-18T16:46:15.295Z,20.70
2018-04-18T16:48:42.896Z,20.60
2018-04-18T16:51:11.551Z,20.60
2018-04-18T16:53:40.106Z,20.60
2018-04-18T16:56:09.450Z,20.60
2018-04-18T16:58:37.044Z,20.60
2018-04-18T17:01:04.733Z,20.60
2018-04-18T17:03:32.814Z,20.60
2018-04-18T17:06:01.949Z,20.40
2018-04-18T17:08:29.593Z,20.40
2018-04-18T17:10:57.225Z,20.40
2018-04-18T17:13:25.738Z,20.40
2018-04-18T17:15:53.531Z,20.30
2018-04-18T17:18:22.250Z,20.40
2018-04-18T17:20:50.904Z,20.30
2018-04-18T17:23:18.481Z,20.20
2018-04-18T17:25:46.153Z,20.20
2018-04-18T17:28:14.496Z,20.10
2018-04-18T17:30:42.197Z,20.10
2018-04-18T17:33:10.515Z,20.10
2018-04-18T17:35:38.279Z,20.10
2018-04-18T17:38:05.883Z,20.00
2018-04-18T17:40:34.281Z,20.00
2018-04-18T17:43:02.879Z,20.00
2018-04-18T17:45:30.583Z,20.00
2018-04-18T17:47:58.291Z,19.90
2018-04-18T17:50:26.045Z,19.90
2018-04-18T17:52:53.684Z,19.80
2018-04-18T17:55:22.142Z,19.80
2018-04-18T17:57:50.823Z,19.70
2018-04-18T18:00:18.649Z,19.70
2018-04-18T18:02:48.347Z,19.60
2018-04-18T18:05:15.992Z,19.70
2018-04-18T18:07:44.449Z,19.60
2018-04-18T18:10:12.132Z,19.50
2018-04-18T18:12:39.812Z,19.50
2018-04-18T18:15:07.480Z,19.40
2018-04-18T18:17:35.158Z,19.40
2018-04-18T18:20:02.791Z,19.40
2018-04-18T18:22:31.433Z,19.40
2018-04-18T18:24:59.127Z,19.40
2018-04-18T18:27:27.558Z,19.20
2018-04-18T18:29:55.934Z,19.20
2018-04-18T18:32:24.340Z,19.20
2018-04-18T18:34:51.935Z,19.20
2018-04-18T18:37:19.672Z,19.10
2018-04-18T18:39:48.118Z,19.00
2018-04-18T18:42:15.761Z,19.00
2018-04-18T18:44:43.461Z,19.00
2018-04-18T18:47:11.158Z,18.90
2018-04-18T18:49:38.915Z,18.90
2018-04-18T18:52:06.637Z,18.80
2018-04-18T18:54:34.291Z,18.80
2018-04-18T18:57:02.028Z,18.70
2018-04-18T18:59:30.631Z,18.70
2018-04-18T19:01:58.538Z,18.60
2018-04-18T19:04:27.114Z,18.50
2018-04-18T19:06:55.830Z,18.50
2018-04-18T19:09:24.551Z,18.60
2018-04-18T19:11:52.284Z,18.50
2018-04-18T19:14:19.915Z,18.40
2018-04-18T19:16:49.429Z,18.40
2018-04-18T19:19:17.094Z,18.40
2018-04-18T19:21:44.698Z,18.40
2018-04-18T19:24:12.435Z,18.30
2018-04-18T19:26:40.028Z,18.40
2018-04-18T19:29:08.652Z,18.40
2018-04-18T19:31:37.071Z,18.10
2018-04-18T19:34:04.752Z,18.10
2018-04-18T19:36:32.513Z,18.10
2018-04-18T19:39:00.161Z,18.10
2018-04-18T19:41:27.982Z,17.90
2018-04-18T19:43:55.667Z,17.90
2018-04-18T19:46:25.420Z,17.90
2018-04-18T19:48:53.028Z,17.90
2018-04-18T19:51:20.722Z,17.90
2018-04-18T19:53:48.338Z,17.80
2018-04-18T19:56:17.130Z,17.80
2018-04-18T19:58:45.860Z,17.70
2018-04-18T20:01:13.503Z,17.70
2018-04-18T20:03:41.173Z,17.70
2018-04-18T20:06:08.782Z,17.70
2018-04-18T20:08:36.493Z,17.70
2018-04-18T20:11:05.713Z,17.70
2018-04-18T20:13:33.308Z,17.70
2018-04-18T20:16:00.977Z,17.50
2018-04-18T20:18:28.645Z,17.50
2018-04-18T20:20:56.232Z,17.50
2018-04-18T20:23:24.716Z,17.50
2018-04-18T20:25:52.353Z,17.50
2018-04-18T20:28:19.983Z,17.50
2018-04-18T20:30:47.791Z,17.50
2018-04-18T20:33:15.414Z,17.40
2018-04-18T20:35:43.040Z,17.40
2018-04-18T20:38:11.090Z,17.40
2018-04-18T20:40:39.457Z,17.30
2018-04-18T20:43:07.036Z,17.30
2018-04-18T20:45:35.668Z,17.30
2018-04-18T20:48:03.232Z,17.30
2018-04-18T20:50:30.804Z,17.30
2018-04-18T20:52:58.459Z,17.30
2018-04-18T20:55:26.126Z,17.40
2018-04-18T20:57:53.682Z,17.30
2018-04-18T21:00:21.325Z,17.30
2018-04-18T21:02:48.967Z,17.30
2018-04-18T21:05:16.582Z,17.30
2018-04-18T21:07:44.093Z,17.30
2018-04-18T21:10:11.690Z,17.30
2018-04-18T21:12:40.112Z,17.20
2018-04-18T21:15:08.499Z,17.20
2018-04-18T21:17:36.898Z,17.20
2018-04-18T21:20:04.550Z,17.20
2018-04-18T21:22:33.138Z,17.10
2018-04-18T21:25:01.742Z,17.10
2018-04-18T21:27:29.344Z,17.10
2018-04-18T21:29:57.749Z,17.00
2018-04-18T21:32:25.448Z,17.00
2018-04-18T21:34:53.141Z,17.00
2018-04-18T21:37:20.817Z,16.90
2018-04-18T21:39:49.175Z,17.00
2018-04-18T21:42:16.885Z,17.00
2018-04-18T21:44:44.574Z,17.00
2018-04-18T21:47:13.636Z,16.90
2018-04-18T21:49:41.293Z,17.00
2018-04-18T21:52:09.052Z,16.80
2018-04-18T21:54:36.713Z,16.80
2018-04-18T21:57:04.409Z,16.80
2018-04-18T21:59:32.040Z,16.80
